Otter Creek, ME

3:00 AM EST on December 08, 2016 (GMT -0500)
Otter Cliffs, Acadia National Park | | Change Station

Elev 46 ft 44.33 °N, 68.20 °W | Updated 6 seconds ago

Overcast
Overcast
33.0 °F
Feels Like 33 °F
N
0.0
Wind Variable Wind from NE
Gusts 1.0 mph

Today
High -- | Low -- °F
--% Chance of Precip.
Yesterday
High -- | Low -- °F
Precip. -- in
Pressure 29.93 in
Visibility 7.0 miles
Clouds Mostly Cloudy 300 ft
Overcast 4300 ft
Windchill 33 °F
Dew Point 33 °F
Humidity 99%
Rainfall 0.00 in
Snow Depth Not available.
6:56 AM 3:53 PM
First Quarter, 61% visible
METAR KBHB 080756Z AUTO 00000KT 7SM BKN003 OVC043 M01/M02 A2992 RMK AO2 SLP134 T10111017 FZRANO
Pressure 29.93 in
Visibility 7.0 miles
Clouds Mostly Cloudy 300 ft
Overcast 4300 ft
Windchill 33 °F
Dew Point 33 °F
Humidity 99%
Rainfall 0.00 in
Snow Depth Not available.
6:56 AM 3:53 PM
First Quarter, 61% visible
METAR KBHB 080756Z AUTO 00000KT 7SM BKN003 OVC043 M01/M02 A2992 RMK AO2 SLP134 T10111017 FZRANO

10-Day Weather Forecast

Almanac

Astronomy

Dec. 08, 2016 Rise Set
Actual Time
Civil Twilight
Nautical Twilight
Astronomical Twilight
Moon
Length of Visible Light
Length of Day
Tomorrow will be .
, % of the Moon is Illuminated

Today's Extremes

State Highs State Lows

Community

WunderPhotos

Upload Photos

1,956,259 photos uploaded!

WunderBlog® & News

Nearby

Air Quality

  Air Quality AQ Index Pollutant
Not available.

Snow Depth

Station Depth Elevation

Earthquake Activity

City Distance Mag. Time & Date
Minimum magnitude displayed is 2.5.

Coastal Water Temperatures

Place Temperature

Stations

Nearby Weather Stations

Station Location Temp. Windchill Dew Point Humidity Wind Precip. Elev Updated Type
                   

Watches & Warnings

There are currently no watches in effect.